createdAt,value
2023-05-17T00:01:47.110Z,96865.56
2023-05-17T00:04:16.514Z,96905.16
2023-05-17T00:07:10.539Z,96866.94
2023-05-17T00:09:40.101Z,96931.94
2023-05-17T00:12:08.768Z,96894.44
2023-05-17T00:14:36.944Z,96889.28
2023-05-17T00:17:07.510Z,96891.34
2023-05-17T00:19:35.776Z,96908.69
2023-05-17T00:22:04.109Z,96847.13
2023-05-17T00:24:32.266Z,96864.84
2023-05-17T00:27:01.868Z,96859.63
2023-05-17T00:29:30.075Z,96863.63
2023-05-17T00:31:58.370Z,96880.97
2023-05-17T00:34:26.673Z,96916.63
2023-05-17T00:36:54.878Z,96876.81
2023-05-17T00:39:23.113Z,96832.44
2023-05-17T00:41:51.426Z,96881.19
2023-05-17T00:44:20.992Z,96902.56
2023-05-17T00:46:50.510Z,96878.03
2023-05-17T00:49:19.456Z,96921.38
2023-05-17T00:51:47.823Z,96862.53
2023-05-17T00:54:17.079Z,96874.47
2023-05-17T00:56:46.007Z,96915.06
2023-05-17T00:59:15.369Z,96919.66
2023-05-17T01:01:45.366Z,96718.31
2023-05-17T01:04:14.234Z,96942.09
2023-05-17T01:06:42.771Z,96886.53
2023-05-17T01:09:11.643Z,96873.03
2023-05-17T01:11:50.105Z,96896.03
2023-05-17T01:14:38.449Z,96888.44
2023-05-17T01:17:18.454Z,96921.56
2023-05-17T01:20:06.365Z,96895.69
2023-05-17T01:22:46.094Z,96940.13
2023-05-17T01:25:30.914Z,96893.53
2023-05-17T01:28:03.657Z,96875.75
2023-05-17T01:30:34.249Z,96931.59
2023-05-17T01:33:04.273Z,96922.41
2023-05-17T01:35:32.705Z,96927.88
2023-05-17T01:38:01.092Z,96953.00
2023-05-17T01:40:30.611Z,96935.97
2023-05-17T01:43:10.323Z,96963.56
2023-05-17T01:45:45.832Z,96939.59
2023-05-17T01:48:21.727Z,96963.38
2023-05-17T01:50:52.231Z,96955.91
2023-05-17T01:53:27.257Z,96933.34
2023-05-17T01:55:58.616Z,96943.81
2023-05-17T01:58:32.019Z,96922.59
2023-05-17T02:01:02.535Z,96886.28
2023-05-17T02:03:31.052Z,96953.09
2023-05-17T02:06:06.971Z,96873.91
2023-05-17T02:08:35.193Z,96950.50
2023-05-17T02:11:03.589Z,96942.09
2023-05-17T02:13:33.533Z,96903.25
2023-05-17T02:16:02.046Z,96943.94
2023-05-17T02:18:30.732Z,96887.97
2023-05-17T02:20:59.147Z,96906.06
2023-05-17T02:23:27.443Z,96942.66
2023-05-17T02:25:56.281Z,96929.66
2023-05-17T02:28:24.615Z,96976.81
2023-05-17T02:30:54.688Z,96926.41
2023-05-17T02:33:23.194Z,96933.22
2023-05-17T02:35:51.553Z,96979.56
2023-05-17T02:38:21.090Z,96964.06
2023-05-17T02:40:49.715Z,96970.59
2023-05-17T02:43:18.030Z,96993.06
2023-05-17T02:45:46.327Z,97014.28
2023-05-17T02:48:16.036Z,96974.78
2023-05-17T02:50:44.298Z,96966.75
2023-05-17T02:53:12.659Z,96958.94
2023-05-17T02:55:41.095Z,96970.28
2023-05-17T02:58:09.499Z,97005.63
2023-05-17T03:00:37.797Z,96969.81
2023-05-17T03:03:06.193Z,96949.00
2023-05-17T03:05:36.519Z,96990.25
2023-05-17T03:08:05.609Z,97013.19
2023-05-17T03:10:34.010Z,96973.31
2023-05-17T03:13:02.291Z,96974.16
2023-05-17T03:15:35.087Z,96992.56
2023-05-17T03:18:04.910Z,96980.09
2023-05-17T03:20:33.293Z,96972.97
2023-05-17T03:23:02.922Z,96978.66
2023-05-17T03:25:31.455Z,96979.25
2023-05-17T03:27:59.793Z,96984.16
2023-05-17T03:30:28.239Z,96970.41
2023-05-17T03:32:57.110Z,96958.31
2023-05-17T03:35:25.895Z,96954.41
2023-05-17T03:37:56.652Z,97019.72
2023-05-17T03:40:27.377Z,96972.66
2023-05-17T03:42:55.734Z,97009.56
2023-05-17T03:45:25.309Z,96969.91
2023-05-17T03:47:53.660Z,97031.59
2023-05-17T03:50:22.696Z,97022.56
2023-05-17T03:52:51.648Z,96869.97
2023-05-17T03:55:20.316Z,96988.41
2023-05-17T03:57:50.183Z,96929.88
2023-05-17T04:00:21.916Z,96995.75
2023-05-17T04:02:51.650Z,97021.19
2023-05-17T04:05:21.014Z,97009.91
2023-05-17T04:07:50.352Z,97032.78
2023-05-17T04:10:19.075Z,97023.09
2023-05-17T04:12:49.894Z,96985.47
2023-05-17T04:15:18.217Z,96996.75
2023-05-17T04:17:46.581Z,97022.13
2023-05-17T04:20:16.227Z,96975.84
2023-05-17T04:22:44.699Z,97044.88
2023-05-17T04:25:13.448Z,97060.53
2023-05-17T04:27:42.168Z,96992.94
2023-05-17T04:30:14.303Z,97024.72
2023-05-17T04:32:43.252Z,97046.03
2023-05-17T04:35:11.675Z,97011.53
2023-05-17T04:37:40.922Z,97021.16
2023-05-17T04:40:20.039Z,97034.31
2023-05-17T04:42:48.740Z,97063.97
2023-05-17T04:45:18.945Z,97093.50
2023-05-17T04:47:47.444Z,97056.72
2023-05-17T04:50:16.814Z,97016.03
2023-05-17T04:52:45.444Z,97049.03
2023-05-17T04:55:14.200Z,97047.03
2023-05-17T04:57:42.542Z,97070.50
2023-05-17T05:00:15.363Z,96993.31
2023-05-17T05:02:48.114Z,97073.81
2023-05-17T05:05:16.647Z,97092.09
2023-05-17T05:07:47.227Z,97074.06
2023-05-17T05:10:16.062Z,97083.53
2023-05-17T05:12:44.828Z,97105.34
2023-05-17T05:15:13.726Z,97053.84
2023-05-17T05:17:47.045Z,97039.34
2023-05-17T05:20:16.460Z,97036.78
2023-05-17T05:22:45.151Z,97073.22
2023-05-17T05:25:14.563Z,97064.91
2023-05-17T05:27:42.767Z,97084.06
2023-05-17T05:30:13.444Z,97087.69
2023-05-17T05:32:41.778Z,97079.78
2023-05-17T05:35:12.525Z,97115.69
2023-05-17T05:37:42.452Z,97082.56
2023-05-17T05:40:12.015Z,97093.69
2023-05-17T05:42:41.998Z,97110.81
2023-05-17T05:45:12.736Z,97065.41
2023-05-17T05:47:42.249Z,97071.34
2023-05-17T05:50:12.611Z,97124.25
2023-05-17T05:52:42.197Z,97105.72
2023-05-17T05:55:11.295Z,97130.00
2023-05-17T05:57:39.569Z,97082.91
2023-05-17T06:00:12.020Z,97116.63
2023-05-17T06:02:43.672Z,97133.69
2023-05-17T06:05:14.916Z,97091.53
2023-05-17T06:07:43.194Z,97137.69
2023-05-17T06:10:12.490Z,97141.97
2023-05-17T06:12:40.813Z,97108.50
2023-05-17T06:15:10.621Z,97129.25
2023-05-17T06:17:38.924Z,97084.84
2023-05-17T06:20:08.751Z,97154.50
2023-05-17T06:22:38.376Z,97148.63
2023-05-17T06:25:07.578Z,97112.63
2023-05-17T06:27:35.882Z,97180.13
2023-05-17T06:30:07.274Z,97151.59
2023-05-17T06:32:36.034Z,97190.94
2023-05-17T06:35:04.770Z,97128.84
2023-05-17T06:37:33.089Z,97142.41
2023-05-17T06:40:10.536Z,97150.97
2023-05-17T06:42:44.199Z,97159.81
2023-05-17T06:45:13.833Z,97153.75
2023-05-17T06:47:42.285Z,97146.59
2023-05-17T06:50:11.343Z,97166.31
2023-05-17T06:52:39.658Z,97139.38
2023-05-17T06:55:10.350Z,97170.16
2023-05-17T06:57:38.687Z,97141.31
2023-05-17T07:00:11.197Z,97148.91
2023-05-17T07:02:39.876Z,97167.56
2023-05-17T07:05:09.401Z,97164.94
2023-05-17T07:07:37.696Z,97110.66
2023-05-17T07:10:09.392Z,97106.25
2023-05-17T07:12:37.767Z,97151.22
2023-05-17T07:15:07.476Z,97180.22
2023-05-17T07:17:35.991Z,97073.09
2023-05-17T07:20:06.210Z,97150.56
2023-05-17T07:22:35.141Z,97184.75
2023-05-17T07:25:04.402Z,97184.19
2023-05-17T07:27:34.209Z,97133.47
2023-05-17T07:30:03.438Z,97145.44
2023-05-17T07:32:31.991Z,97155.00
2023-05-17T07:35:02.245Z,97117.50
2023-05-17T07:37:30.690Z,97162.91
2023-05-17T07:39:58.926Z,97151.84
2023-05-17T07:42:28.258Z,97151.03
2023-05-17T07:44:57.888Z,97153.66
2023-05-17T07:47:26.470Z,97154.34
2023-05-17T07:49:56.567Z,97141.84
2023-05-17T07:52:24.779Z,97164.53
2023-05-17T07:54:52.995Z,97127.66
2023-05-17T07:57:21.224Z,97162.91
2023-05-17T07:59:49.457Z,97150.91
2023-05-17T08:02:19.030Z,97127.03
2023-05-17T08:04:48.795Z,97153.38
2023-05-17T08:07:17.931Z,97140.72
2023-05-17T08:09:46.138Z,97134.81
2023-05-17T08:12:14.398Z,97124.22
2023-05-17T08:14:42.716Z,97153.31
2023-05-17T08:17:10.955Z,97170.63
2023-05-17T08:19:41.018Z,97118.88
2023-05-17T08:22:09.561Z,97131.09
2023-05-17T08:24:44.918Z,97212.41
2023-05-17T08:27:13.303Z,97129.53
2023-05-17T08:29:41.715Z,97129.19
2023-05-17T08:32:10.005Z,97162.22
2023-05-17T08:34:38.254Z,97128.00
2023-05-17T08:37:08.260Z,97117.44
2023-05-17T08:39:36.560Z,97137.69
2023-05-17T08:42:09.606Z,97149.59
2023-05-17T08:44:38.761Z,97162.22
2023-05-17T08:47:09.301Z,97136.31
2023-05-17T08:49:38.097Z,97164.13
2023-05-17T08:52:11.144Z,97103.03
2023-05-17T08:54:39.489Z,97151.81
2023-05-17T08:57:08.906Z,97159.63
2023-05-17T08:59:38.177Z,97158.34
2023-05-17T09:02:07.353Z,97170.31
2023-05-17T09:04:36.230Z,97181.50
2023-05-17T09:07:28.877Z,97175.75
2023-05-17T09:09:58.557Z,97172.41
2023-05-17T09:12:27.184Z,97168.00
2023-05-17T09:14:55.763Z,97164.03
2023-05-17T09:17:24.186Z,97127.84
2023-05-17T09:19:52.739Z,97154.94
2023-05-17T09:22:21.539Z,97171.13
2023-05-17T09:24:51.449Z,97131.16
2023-05-17T09:27:21.098Z,97172.38
2023-05-17T09:29:49.314Z,97161.66
2023-05-17T09:32:20.630Z,97176.53
2023-05-17T09:34:50.043Z,97146.16
2023-05-17T09:37:20.859Z,97149.09
2023-05-17T09:39:49.474Z,97115.31
2023-05-17T09:42:20.706Z,97127.50
2023-05-17T09:44:53.194Z,97135.44
2023-05-17T09:47:26.894Z,97154.44
2023-05-17T09:49:57.481Z,97161.19
2023-05-17T09:52:26.990Z,97141.22
2023-05-17T09:54:57.496Z,97125.81
2023-05-17T09:57:29.629Z,97135.59
2023-05-17T09:59:58.528Z,97178.22
2023-05-17T10:02:30.171Z,97187.16
2023-05-17T10:04:59.362Z,97179.53
2023-05-17T10:07:33.310Z,97175.72
2023-05-17T10:10:01.970Z,97169.38
2023-05-17T10:12:35.217Z,97193.19
2023-05-17T10:15:04.988Z,97201.84
2023-05-17T10:17:35.845Z,97152.31
2023-05-17T10:20:08.745Z,97144.88
2023-05-17T10:22:38.169Z,97182.50
2023-05-17T10:25:11.315Z,97161.19
2023-05-17T10:27:44.085Z,97159.47
2023-05-17T10:30:14.609Z,97205.59
2023-05-17T10:32:44.109Z,97125.06
2023-05-17T10:35:16.048Z,97147.22
2023-05-17T10:37:44.375Z,97161.25
2023-05-17T10:40:14.331Z,97193.13
2023-05-17T10:42:50.904Z,97161.75
2023-05-17T10:45:22.897Z,97166.53
2023-05-17T10:47:52.886Z,97215.50
2023-05-17T10:50:24.434Z,97171.66
2023-05-17T10:52:55.873Z,97200.34
2023-05-17T10:55:26.184Z,97194.66
2023-05-17T10:58:19.920Z,97159.06
2023-05-17T11:00:52.031Z,97196.63
2023-05-17T11:03:23.694Z,97193.88
2023-05-17T11:06:25.336Z,97134.06
2023-05-17T11:09:16.066Z,97182.38
2023-05-17T11:12:06.158Z,97190.56
2023-05-17T11:14:55.664Z,97185.75
2023-05-17T11:17:27.541Z,97194.31
2023-05-17T11:20:06.013Z,97159.31
2023-05-17T11:22:41.155Z,97186.75
2023-05-17T11:25:13.062Z,97211.56
2023-05-17T11:27:46.598Z,97118.72
2023-05-17T11:30:24.463Z,97174.97
2023-05-17T11:32:56.051Z,97191.31
2023-05-17T11:35:31.169Z,97156.19
2023-05-17T11:38:25.046Z,97196.72
2023-05-17T11:40:56.224Z,97249.59
2023-05-17T11:43:27.353Z,97180.63
2023-05-17T11:46:01.477Z,97162.78
2023-05-17T11:48:32.226Z,97172.97
2023-05-17T11:51:02.380Z,97196.28
2023-05-17T11:53:32.815Z,97194.34
2023-05-17T11:56:05.357Z,97149.19
2023-05-17T11:58:34.299Z,97093.38
2023-05-17T12:01:04.431Z,97147.53
2023-05-17T12:03:34.701Z,97128.69
2023-05-17T12:06:18.712Z,97169.63
2023-05-17T12:08:48.332Z,97189.13
2023-05-17T12:11:18.277Z,97143.91
2023-05-17T12:13:53.029Z,97130.84
2023-05-17T12:16:24.895Z,97109.81
2023-05-17T12:18:53.803Z,97173.41
2023-05-17T12:21:22.253Z,97141.88
2023-05-17T12:23:53.437Z,97206.69
2023-05-17T12:26:23.652Z,97089.94
2023-05-17T12:28:57.510Z,97138.94
2023-05-17T12:31:30.974Z,97111.34
2023-05-17T12:34:02.231Z,97177.22
2023-05-17T12:36:33.510Z,97145.22
2023-05-17T12:39:05.650Z,97155.53
2023-05-17T12:41:34.247Z,97152.09
2023-05-17T12:44:14.428Z,97149.50
2023-05-17T12:46:45.063Z,97190.88
2023-05-17T12:49:13.452Z,97184.13
2023-05-17T12:51:43.424Z,97144.59
2023-05-17T12:54:12.987Z,97148.06
2023-05-17T12:56:43.879Z,97111.44
2023-05-17T12:59:16.790Z,97200.34
2023-05-17T13:01:48.982Z,97146.69
2023-05-17T13:04:19.049Z,97234.19
2023-05-17T13:06:49.432Z,97162.59
2023-05-17T13:09:18.886Z,97166.63
2023-05-17T13:11:52.322Z,97179.56
2023-05-17T13:14:36.817Z,97193.34
2023-05-17T13:17:08.905Z,97191.69
2023-05-17T13:19:37.767Z,97187.09
2023-05-17T13:22:07.695Z,97149.63
2023-05-17T13:24:39.728Z,97134.94
2023-05-17T13:27:08.711Z,97182.66
2023-05-17T13:29:40.560Z,97137.25
2023-05-17T13:32:12.836Z,97147.56
2023-05-17T13:34:41.849Z,97118.22
2023-05-17T13:37:12.485Z,97147.16
2023-05-17T13:39:42.133Z,97161.53
2023-05-17T13:42:10.862Z,97083.72
2023-05-17T13:44:39.601Z,97170.47
2023-05-17T13:47:08.369Z,97201.00
2023-05-17T13:49:38.141Z,97151.28
2023-05-17T13:52:08.895Z,97146.00
2023-05-17T13:54:38.174Z,97152.94
2023-05-17T13:57:08.194Z,97149.00
2023-05-17T13:59:36.697Z,97103.44
2023-05-17T14:02:05.254Z,97163.69
2023-05-17T14:04:44.824Z,97191.59
2023-05-17T14:07:21.670Z,97166.19
2023-05-17T14:09:49.977Z,97160.56
2023-05-17T14:12:18.292Z,97192.63
2023-05-17T14:14:46.557Z,97183.38
2023-05-17T14:17:14.800Z,97447.84
2023-05-17T14:19:44.479Z,97182.16
2023-05-17T14:22:13.769Z,97173.59
2023-05-17T14:24:42.162Z,97194.19
2023-05-17T14:27:10.390Z,97154.28
2023-05-17T14:29:38.648Z,97204.28
2023-05-17T14:32:08.044Z,97185.84
2023-05-17T14:34:36.350Z,97115.97
2023-05-17T14:37:08.688Z,97197.44
2023-05-17T14:39:37.372Z,97178.81
2023-05-17T14:42:06.606Z,97179.69
2023-05-17T14:44:38.689Z,97193.25
2023-05-17T14:47:08.851Z,97192.28
2023-05-17T14:49:37.073Z,97189.31
2023-05-17T14:52:06.857Z,97120.91
2023-05-17T14:54:35.633Z,97181.53
2023-05-17T14:57:04.970Z,97141.38
2023-05-17T14:59:33.301Z,97141.84
2023-05-17T15:02:01.548Z,97129.47
2023-05-17T15:04:29.927Z,97194.22
2023-05-17T15:06:58.948Z,97189.59
2023-05-17T15:09:30.778Z,97122.19
2023-05-17T15:11:59.170Z,97192.59
2023-05-17T15:14:27.444Z,97150.09
2023-05-17T15:16:56.340Z,97197.72
2023-05-17T15:19:24.703Z,97221.97
2023-05-17T15:21:53.011Z,97125.97
2023-05-17T15:24:21.260Z,97145.63
2023-05-17T15:26:50.844Z,97229.91
2023-05-17T15:29:19.331Z,97196.06
2023-05-17T15:31:47.538Z,97143.34
2023-05-17T15:34:16.033Z,97158.88
2023-05-17T15:36:44.455Z,97166.44
2023-05-17T15:39:12.738Z,97168.91
2023-05-17T15:41:41.014Z,97170.34
2023-05-17T15:44:10.700Z,97200.72
2023-05-17T15:46:39.279Z,97165.59
2023-05-17T15:49:07.604Z,97176.34
2023-05-17T15:51:36.038Z,97148.75
2023-05-17T15:54:04.388Z,97151.88
2023-05-17T15:56:32.690Z,97155.00
2023-05-17T15:59:02.714Z,97126.59
2023-05-17T16:01:34.200Z,97133.91
2023-05-17T16:04:02.480Z,97149.72
2023-05-17T16:06:34.854Z,97162.72
2023-05-17T16:09:03.655Z,97117.56
2023-05-17T16:11:32.410Z,97101.94
2023-05-17T16:14:00.742Z,97173.53
2023-05-17T16:16:29.119Z,97146.16
2023-05-17T16:18:58.772Z,97144.50
2023-05-17T16:21:27.074Z,97131.94
2023-05-17T16:23:55.444Z,97133.22
2023-05-17T16:26:23.720Z,97163.09
2023-05-17T16:28:52.108Z,97161.28
2023-05-17T16:31:20.775Z,97180.66
2023-05-17T16:33:49.189Z,97159.16
2023-05-17T16:36:18.853Z,97178.31
2023-05-17T16:38:47.189Z,97126.22
2023-05-17T16:41:15.412Z,97152.97
2023-05-17T16:43:43.616Z,97143.59
2023-05-17T16:46:12.028Z,97130.69
2023-05-17T16:48:41.027Z,97049.25
2023-05-17T16:51:09.271Z,97044.72
2023-05-17T16:53:38.864Z,97144.31
2023-05-17T16:56:07.664Z,97162.72
2023-05-17T16:58:35.910Z,97021.59
2023-05-17T17:01:04.176Z,97107.72
2023-05-17T17:03:32.637Z,97093.72
2023-05-17T17:06:01.025Z,97128.94
2023-05-17T17:08:29.313Z,97151.22
2023-05-17T17:10:58.968Z,97122.81
2023-05-17T17:13:27.679Z,97125.59
2023-05-17T17:15:55.993Z,97095.38
2023-05-17T17:18:24.289Z,97183.84
2023-05-17T17:20:52.582Z,97163.31
2023-05-17T17:23:20.799Z,97150.91
2023-05-17T17:25:48.988Z,97149.88
2023-05-17T17:28:18.536Z,97183.50
2023-05-17T17:30:47.512Z,97152.56
2023-05-17T17:33:15.746Z,97119.94
2023-05-17T17:35:43.961Z,97108.50
2023-05-17T17:38:14.659Z,97130.00
2023-05-17T17:40:42.864Z,97141.22
2023-05-17T17:43:11.108Z,97152.34
2023-05-17T17:45:40.719Z,97130.41
2023-05-17T17:48:09.000Z,97134.19
2023-05-17T17:50:37.186Z,97089.38
2023-05-17T17:53:05.400Z,97096.19
2023-05-17T17:55:33.624Z,97193.91
2023-05-17T17:58:01.906Z,97181.03
2023-05-17T18:00:30.346Z,97203.25
2023-05-17T18:03:00.266Z,97157.06
2023-05-17T18:05:28.835Z,97156.97
2023-05-17T18:07:57.884Z,97172.44
2023-05-17T18:10:26.161Z,97188.66
2023-05-17T18:12:54.907Z,97138.09
2023-05-17T18:15:23.340Z,97189.44
2023-05-17T18:17:52.243Z,97155.41
2023-05-17T18:20:23.162Z,97149.31
2023-05-17T18:22:51.416Z,97107.13
2023-05-17T18:25:20.033Z,97176.06
2023-05-17T18:27:48.274Z,97201.38
2023-05-17T18:30:16.567Z,97130.16
2023-05-17T18:32:44.995Z,97123.78
2023-05-17T18:35:13.770Z,97114.59
2023-05-17T18:37:43.634Z,97161.19
2023-05-17T18:40:13.816Z,97147.34
2023-05-17T18:42:42.286Z,97169.66
2023-05-17T18:45:11.810Z,97156.25
2023-05-17T18:47:40.124Z,97177.50
2023-05-17T18:50:10.032Z,97161.75
2023-05-17T18:52:39.350Z,97133.28
2023-05-17T18:55:09.898Z,97152.44
2023-05-17T18:57:38.155Z,97186.28
2023-05-17T19:00:08.618Z,97146.03
2023-05-17T19:02:36.900Z,97188.56
2023-05-17T19:05:05.895Z,97195.34
2023-05-17T19:07:34.197Z,97211.56
2023-05-17T19:10:02.429Z,97176.66
2023-05-17T19:12:32.024Z,97203.94
2023-05-17T19:15:00.262Z,97203.88
2023-05-17T19:17:28.547Z,97204.22
2023-05-17T19:19:57.191Z,97227.88
2023-05-17T19:22:25.447Z,97189.91
2023-05-17T19:24:53.774Z,97171.13
2023-05-17T19:27:22.018Z,97238.19
2023-05-17T19:29:51.727Z,97117.78
2023-05-17T19:32:20.516Z,97205.16
2023-05-17T19:34:48.748Z,97222.69
2023-05-17T19:37:17.079Z,97198.53
2023-05-17T19:39:45.377Z,97184.69
2023-05-17T19:42:13.647Z,97174.50
2023-05-17T19:44:41.873Z,97198.25
2023-05-17T19:47:11.555Z,97240.16
2023-05-17T19:49:40.039Z,97226.34
2023-05-17T19:52:08.914Z,97227.50
2023-05-17T19:54:37.181Z,97228.34
2023-05-17T19:57:06.141Z,97240.69
2023-05-17T19:59:34.602Z,97195.44
2023-05-17T20:02:05.783Z,97239.72
2023-05-17T20:04:35.556Z,97221.19
2023-05-17T20:07:04.190Z,97222.31
2023-05-17T20:09:32.440Z,97249.41
2023-05-17T20:12:01.053Z,97207.97
2023-05-17T20:14:29.556Z,97199.34
2023-05-17T20:16:57.838Z,97263.50
2023-05-17T20:19:26.278Z,97202.72
2023-05-17T20:21:56.202Z,97168.69
2023-05-17T20:24:25.911Z,97187.47
2023-05-17T20:26:54.192Z,97223.41
2023-05-17T20:29:22.450Z,97200.47
2023-05-17T20:31:50.751Z,97241.63
2023-05-17T20:34:19.514Z,97231.97
2023-05-17T20:36:47.877Z,97199.91
2023-05-17T20:39:17.927Z,97213.56
2023-05-17T20:41:47.683Z,97191.31
2023-05-17T20:44:18.738Z,97084.59
2023-05-17T20:46:47.262Z,97096.41
2023-05-17T20:49:16.942Z,97200.94
2023-05-17T20:51:45.726Z,97189.34
2023-05-17T20:54:16.044Z,97209.03
2023-05-17T20:56:45.760Z,97221.22
2023-05-17T20:59:14.031Z,97182.63
2023-05-17T21:01:42.384Z,97241.75
2023-05-17T21:04:11.271Z,97259.69
2023-05-17T21:06:39.528Z,97195.38
2023-05-17T21:09:08.379Z,97210.00
2023-05-17T21:11:36.716Z,97204.44
2023-05-17T21:14:06.306Z,97178.63
2023-05-17T21:16:35.412Z,97213.78
2023-05-17T21:19:03.867Z,97204.97
2023-05-17T21:21:32.152Z,97199.47
2023-05-17T21:24:00.371Z,97240.06
2023-05-17T21:26:53.675Z,97217.16
2023-05-17T21:29:23.704Z,97236.47
2023-05-17T21:31:52.022Z,97222.94
2023-05-17T21:34:20.267Z,97233.22
2023-05-17T21:36:48.555Z,97226.31
2023-05-17T21:39:17.100Z,97198.38
2023-05-17T21:41:45.343Z,97232.47
2023-05-17T21:44:13.645Z,97170.59
2023-05-17T21:46:43.405Z,97212.03
2023-05-17T21:49:11.773Z,97194.63
2023-05-17T21:51:41.601Z,97216.84
2023-05-17T21:54:09.842Z,97232.16
2023-05-17T21:56:38.242Z,97207.44
2023-05-17T21:59:06.466Z,97195.00
2023-05-17T22:01:34.747Z,97195.00
2023-05-17T22:07:01.718Z,97223.88
2023-05-17T22:09:31.006Z,97232.47
2023-05-17T22:11:59.659Z,97201.56
2023-05-17T22:14:33.257Z,97173.34
2023-05-17T22:17:03.153Z,97187.72
2023-05-17T22:19:32.787Z,97211.97
2023-05-17T22:22:03.019Z,97219.56
2023-05-17T22:24:31.452Z,97190.22
2023-05-17T22:26:59.752Z,97259.19
2023-05-17T22:29:28.241Z,97217.44
2023-05-17T22:31:56.619Z,97252.38
2023-05-17T22:34:33.022Z,97225.13
2023-05-17T22:37:01.651Z,97199.97
2023-05-17T22:39:29.883Z,97223.03
2023-05-17T22:41:58.262Z,97245.38
2023-05-17T22:44:27.331Z,97229.22
2023-05-17T22:46:57.705Z,97206.53
2023-05-17T22:49:26.090Z,97259.91
2023-05-17T22:51:56.038Z,97213.78
2023-05-17T22:54:26.741Z,97239.56
2023-05-17T22:56:55.298Z,97245.88
2023-05-17T22:59:23.858Z,97195.28
2023-05-17T23:01:52.262Z,97269.53
2023-05-17T23:04:25.881Z,97243.03
2023-05-17T23:07:02.389Z,97244.94
2023-05-17T23:09:31.201Z,97245.91
2023-05-17T23:12:00.513Z,97244.72
2023-05-17T23:14:57.900Z,97201.25
2023-05-17T23:17:26.575Z,97198.38
2023-05-17T23:19:55.664Z,97242.09
2023-05-17T23:22:31.205Z,97162.16
2023-05-17T23:25:00.305Z,97244.97
2023-05-17T23:27:30.085Z,97222.38
2023-05-17T23:29:58.512Z,97204.78
2023-05-17T23:32:26.836Z,97220.47
2023-05-17T23:34:58.561Z,97217.84
2023-05-17T23:37:28.215Z,97204.75
2023-05-17T23:39:56.602Z,97207.63
2023-05-17T23:42:26.595Z,97212.81
2023-05-17T23:44:54.945Z,97226.25
2023-05-17T23:47:23.252Z,97250.13
2023-05-17T23:49:52.823Z,97209.31
2023-05-17T23:52:23.350Z,97221.69
2023-05-17T23:54:57.365Z,97223.50
2023-05-17T23:57:25.754Z,97252.72
2023-05-17T23:59:54.068Z,97203.38
